Time;durP1;ratioP1;P1;durP2;ratioP2;P2;SDS_P1;SDS_P2;PMS_P1;PMS_P2;Temp;Humidity;BMP_temperature;BMP_pressure;BME280_temperature;BME280_humidity;BME280_pressure;Samples;Min_cycle;Max_cycle;Signal;HPM_P1;HPM_P2
2023/09/10 00:01:03;;;;;;;23.02;21.23;;;17.80;99.90;;;;;;5057068;28;20067;-73
2023/09/10 00:03:29;;;;;;;23.77;21.80;;;17.80;99.90;;;;;;5052594;28;20040;-72
2023/09/10 00:05:55;;;;;;;24.38;22.27;;;17.80;99.90;;;;;;5056538;28;20060;-73
2023/09/10 00:08:21;;;;;;;25.20;23.15;;;17.80;99.90;;;;;;5063667;28;20050;-73
2023/09/10 00:10:47;;;;;;;24.52;21.33;;;17.80;99.90;;;;;;5055168;28;20049;-73
2023/09/10 00:13:13;;;;;;;20.60;19.00;;;17.70;99.90;;;;;;5045385;28;20044;-73
2023/09/10 00:15:39;;;;;;;21.13;19.52;;;17.70;99.90;;;;;;5058978;28;20655;-73
2023/09/10 00:18:05;;;;;;;19.70;18.15;;;17.70;99.90;;;;;;5057315;28;20049;-73
2023/09/10 00:20:30;;;;;;;18.02;16.70;;;17.60;99.90;;;;;;5058434;28;20203;-73
2023/09/10 00:22:57;;;;;;;22.75;20.95;;;17.50;99.90;;;;;;5056045;28;20036;-73
2023/09/10 00:25:23;;;;;;;21.35;19.75;;;17.50;99.90;;;;;;5064597;28;20044;-73
2023/09/10 00:27:49;;;;;;;22.23;20.52;;;17.50;99.90;;;;;;5060671;28;20056;-73
2023/09/10 00:30:15;;;;;;;21.20;19.55;;;17.40;99.90;;;;;;5058376;28;20059;-73
2023/09/10 00:32:44;;;;;;;23.33;21.52;;;17.40;99.90;;;;;;5043615;28;20068;-73
2023/09/10 00:35:09;;;;;;;26.70;24.70;;;17.30;99.90;;;;;;5063492;28;20048;-73
2023/09/10 00:37:35;;;;;;;26.15;24.15;;;17.30;99.90;;;;;;5063422;28;20036;-73
2023/09/10 00:40:01;;;;;;;26.48;24.27;;;17.20;99.90;;;;;;5066443;28;20056;-73
2023/09/10 00:42:27;;;;;;;25.85;23.85;;;17.30;99.90;;;;;;5034665;28;20051;-73
2023/09/10 00:44:52;;;;;;;26.15;24.00;;;17.30;99.90;;;;;;5041638;28;20055;-73
2023/09/10 00:47:18;;;;;;;27.75;25.45;;;17.30;99.90;;;;;;5056486;28;20535;-73
2023/09/10 00:49:44;;;;;;;28.58;26.27;;;17.30;99.90;;;;;;5052785;28;20051;-73
2023/09/10 00:52:11;;;;;;;27.77;25.58;;;17.30;99.90;;;;;;5057448;28;20052;-73
2023/09/10 00:54:38;;;;;;;25.95;23.85;;;17.30;99.90;;;;;;5054891;28;20063;-73
2023/09/10 00:57:05;;;;;;;26.25;24.08;;;17.30;99.90;;;;;;5055444;28;20051;-73
2023/09/10 00:59:31;;;;;;;30.80;28.30;;;17.30;99.90;;;;;;5040553;28;20698;-73
2023/09/10 01:02:02;;;;;;;23.10;21.17;;;17.30;99.90;;;;;;5081333;28;20036;-73
2023/09/10 01:04:28;;;;;;;25.65;23.55;;;17.30;99.90;;;;;;5044692;28;20549;-73
2023/09/10 01:06:54;;;;;;;25.48;23.33;;;17.20;99.90;;;;;;5057149;28;20052;-73
2023/09/10 01:09:20;;;;;;;24.35;22.35;;;17.20;99.90;;;;;;5064135;28;20041;-73
2023/09/10 01:12:09;;;;;;;22.02;20.23;;;17.10;99.90;;;;;;5062261;28;20449;-73
2023/09/10 01:14:55;;;;;;;25.95;23.85;;;17.20;99.90;;;;;;5059098;28;20399;-73
2023/09/10 01:17:37;;;;;;;33.05;30.08;;;17.10;99.90;;;;;;5093479;28;20048;-73
2023/09/10 01:20:21;;;;;;;30.02;27.40;;;17.20;99.90;;;;;;5062044;28;20476;-73
2023/09/10 01:23:08;;;;;;;26.10;23.75;;;17.10;99.90;;;;;;5098067;28;20096;-73
2023/09/10 01:25:35;;;;;;;27.85;25.55;;;17.00;99.90;;;;;;5064883;28;20044;-73
2023/09/10 01:28:04;;;;;;;27.52;25.38;;;17.10;99.90;;;;;;5060614;28;20048;-73
2023/09/10 01:30:31;;;;;;;30.48;27.90;;;17.10;99.90;;;;;;5061334;28;20665;-73
2023/09/10 01:33:16;;;;;;;33.58;30.60;;;17.10;99.90;;;;;;5058179;28;20736;-73
2023/09/10 01:35:53;;;;;;;31.67;29.00;;;17.10;99.90;;;;;;5100168;28;20078;-73
2023/09/10 01:38:24;;;;;;;27.90;25.70;;;17.10;99.90;;;;;;5060855;28;20090;-73
2023/09/10 01:41:00;;;;;;;30.08;27.65;;;17.00;99.90;;;;;;5056632;28;20045;-73
2023/09/10 01:43:26;;;;;;;29.55;27.15;;;17.00;99.90;;;;;;5036857;28;20522;-73
2023/09/10 01:45:52;;;;;;;26.95;24.75;;;17.00;99.90;;;;;;5039468;28;20049;-73
2023/09/10 01:48:18;;;;;;;25.20;23.23;;;17.00;99.90;;;;;;5066118;28;20811;-73
2023/09/10 01:50:44;;;;;;;27.13;24.92;;;16.90;99.90;;;;;;5046510;28;20045;-73
2023/09/10 01:53:09;;;;;;;26.02;23.92;;;16.90;99.90;;;;;;5066118;28;20088;-73
2023/09/10 01:55:35;;;;;;;26.90;24.65;;;16.90;99.90;;;;;;5053235;28;20095;-73
2023/09/10 01:58:01;;;;;;;27.35;25.10;;;16.90;99.90;;;;;;5044468;28;20048;-73
2023/09/10 02:00:27;;;;;;;25.17;23.08;;;16.90;99.90;;;;;;5059174;28;20044;-73
2023/09/10 02:02:53;;;;;;;20.13;18.52;;;16.90;99.90;;;;;;5039132;28;20041;-74
2023/09/10 02:05:19;;;;;;;21.27;19.52;;;16.90;99.90;;;;;;5062882;28;20067;-73
2023/09/10 02:07:44;;;;;;;20.58;18.98;;;16.90;99.90;;;;;;5042630;28;20033;-73
2023/09/10 02:10:10;;;;;;;19.95;18.35;;;16.90;99.90;;;;;;5054552;28;20045;-73
2023/09/10 02:12:37;;;;;;;35.38;32.17;;;16.90;99.90;;;;;;5071260;28;20037;-73
2023/09/10 02:15:09;;;;;;;25.42;23.30;;;16.90;99.90;;;;;;5042263;28;20201;-73
2023/09/10 02:17:34;;;;;;;25.42;23.27;;;16.80;99.90;;;;;;5063726;28;20047;-73
2023/09/10 02:20:00;;;;;;;27.27;24.90;;;16.70;99.90;;;;;;5064214;28;20238;-73
2023/09/10 02:22:26;;;;;;;29.08;26.42;;;16.70;99.90;;;;;;5045344;28;20527;-73
2023/09/10 02:24:52;;;;;;;27.23;24.92;;;16.70;99.90;;;;;;5063338;28;20097;-74
2023/09/10 02:27:18;;;;;;;33.50;30.38;;;16.60;99.90;;;;;;5057662;28;20047;-74
2023/09/10 02:29:43;;;;;;;30.23;27.52;;;16.60;99.90;;;;;;5059098;28;20056;-74
2023/09/10 02:32:09;;;;;;;34.70;31.58;;;16.60;99.90;;;;;;5063953;28;20044;-73
2023/09/10 02:34:35;;;;;;;40.38;36.80;;;16.60;99.90;;;;;;5058731;28;20050;-74
2023/09/10 02:37:02;;;;;;;38.15;34.80;;;16.60;99.90;;;;;;5058817;28;20048;-74
2023/09/10 02:39:31;;;;;;;33.55;30.55;;;16.60;99.90;;;;;;5050865;28;20049;-74
2023/09/10 02:41:57;;;;;;;34.45;31.55;;;16.60;99.90;;;;;;5061671;28;20132;-74
2023/09/10 02:44:23;;;;;;;32.10;29.50;;;16.50;99.90;;;;;;5058682;28;20123;-74
2023/09/10 02:46:48;;;;;;;32.90;30.05;;;16.50;99.90;;;;;;5060532;28;20052;-74
2023/09/10 02:49:16;;;;;;;49.38;44.65;;;16.50;99.90;;;;;;5044795;28;20640;-74
2023/09/10 02:51:42;;;;;;;63.05;55.17;;;16.50;99.90;;;;;;5047191;28;20531;-74
2023/09/10 02:54:07;;;;;;;35.30;32.25;;;16.50;99.90;;;;;;5056858;28;20102;-74
2023/09/10 02:56:33;;;;;;;37.85;34.65;;;16.50;99.90;;;;;;5061962;28;20033;-74
2023/09/10 02:58:59;;;;;;;39.15;35.63;;;16.50;99.90;;;;;;5058396;28;20059;-74
2023/09/10 03:01:25;;;;;;;39.50;36.00;;;16.50;99.90;;;;;;5059824;28;20036;-74
2023/09/10 03:03:50;;;;;;;33.55;30.75;;;16.50;99.90;;;;;;5043279;28;20125;-74
2023/09/10 03:06:16;;;;;;;35.42;32.40;;;16.50;99.90;;;;;;5061314;28;20047;-74
2023/09/10 03:08:44;;;;;;;32.60;29.90;;;16.50;99.90;;;;;;5049447;28;20049;-74
2023/09/10 03:11:09;;;;;;;31.30;28.60;;;16.50;99.90;;;;;;5048097;28;20166;-74
2023/09/10 03:13:35;;;;;;;30.27;27.70;;;16.50;99.90;;;;;;5045152;28;20519;-74
2023/09/10 03:16:01;;;;;;;32.22;29.45;;;16.50;99.90;;;;;;5046068;28;20048;-74
2023/09/10 03:18:27;;;;;;;36.30;33.10;;;16.40;99.90;;;;;;5060770;28;20090;-74
2023/09/10 03:20:54;;;;;;;31.77;29.17;;;16.40;99.90;;;;;;5058129;28;20570;-74
2023/09/10 03:23:20;;;;;;;32.70;29.98;;;16.50;99.90;;;;;;5057862;28;20809;-74
2023/09/10 03:25:46;;;;;;;29.33;26.85;;;16.40;99.90;;;;;;5060039;28;20106;-74
2023/09/10 03:28:12;;;;;;;31.60;28.92;;;16.40;99.90;;;;;;5066521;28;20047;-74
2023/09/10 03:30:38;;;;;;;29.05;26.65;;;16.40;99.90;;;;;;5047008;28;20059;-74
2023/09/10 03:33:04;;;;;;;32.15;29.45;;;16.40;99.90;;;;;;5063978;28;20064;-74
2023/09/10 03:35:29;;;;;;;37.17;33.83;;;16.40;99.90;;;;;;5068790;28;20453;-74
2023/09/10 03:37:55;;;;;;;35.55;32.38;;;16.40;99.90;;;;;;5059644;28;20040;-74
2023/09/10 03:40:21;;;;;;;36.72;33.47;;;16.40;99.90;;;;;;5053953;28;20082;-74
2023/09/10 03:42:47;;;;;;;32.28;29.50;;;16.40;99.90;;;;;;5047597;28;20502;-74
2023/09/10 03:45:12;;;;;;;30.70;27.90;;;16.40;99.90;;;;;;5041128;28;20140;-74
2023/09/10 03:47:38;;;;;;;28.27;25.88;;;16.40;99.90;;;;;;5058403;28;20040;-74
2023/09/10 03:50:05;;;;;;;27.08;24.88;;;16.30;99.90;;;;;;5062165;28;20053;-74
2023/09/10 03:52:31;;;;;;;25.20;23.13;;;16.30;99.90;;;;;;5040615;28;20055;-74
2023/09/10 03:54:56;;;;;;;24.52;22.45;;;16.30;99.90;;;;;;5065698;28;20044;-74
2023/09/10 03:57:22;;;;;;;25.75;23.55;;;16.30;99.90;;;;;;5057561;28;20041;-74
2023/09/10 03:59:48;;;;;;;22.95;21.05;;;16.30;99.90;;;;;;5044044;28;20131;-74
2023/09/10 04:02:14;;;;;;;26.50;24.30;;;16.30;99.90;;;;;;5052068;28;20036;-74
2023/09/10 04:04:41;;;;;;;29.08;26.60;;;16.30;99.90;;;;;;5055335;28;20036;-74
2023/09/10 04:07:07;;;;;;;29.88;27.40;;;16.20;99.90;;;;;;5040469;28;20120;-74
2023/09/10 04:09:32;;;;;;;36.88;33.58;;;16.20;99.90;;;;;;5058882;28;20128;-74
2023/09/10 04:11:58;;;;;;;34.83;31.88;;;16.20;99.90;;;;;;5046111;28;20079;-74
2023/09/10 04:14:24;;;;;;;36.13;32.78;;;16.20;99.90;;;;;;5053532;28;20533;-74
2023/09/10 04:16:50;;;;;;;39.35;35.78;;;16.20;99.90;;;;;;5042826;28;20133;-74
2023/09/10 04:19:16;;;;;;;48.22;43.42;;;16.20;99.90;;;;;;5058583;28;20131;-74
2023/09/10 04:21:41;;;;;;;33.97;30.98;;;16.20;99.90;;;;;;5033682;28;20049;-74
2023/09/10 04:24:07;;;;;;;34.58;31.70;;;16.20;99.90;;;;;;5055416;28;20523;-74
2023/09/10 04:26:33;;;;;;;39.10;35.40;;;16.20;99.90;;;;;;5058136;28;20045;-74
2023/09/10 04:28:59;;;;;;;44.53;40.67;;;16.10;99.90;;;;;;5050649;28;20581;-74
2023/09/10 04:31:25;;;;;;;33.53;30.77;;;16.10;99.90;;;;;;5063440;28;20037;-74
2023/09/10 04:33:51;;;;;;;30.25;27.75;;;16.10;99.90;;;;;;5076167;28;20738;-74
2023/09/10 04:36:16;;;;;;;28.13;25.58;;;16.00;99.90;;;;;;5049721;28;20658;-74
2023/09/10 04:38:42;;;;;;;26.90;24.70;;;16.00;99.90;;;;;;5040729;28;20036;-74
2023/09/10 04:41:08;;;;;;;35.30;32.08;;;16.00;99.90;;;;;;5059884;28;20076;-74
2023/09/10 04:43:34;;;;;;;33.20;30.20;;;15.90;99.90;;;;;;5058643;28;20419;-74
2023/09/10 04:45:59;;;;;;;32.38;29.65;;;15.90;99.90;;;;;;5061127;28;20107;-74
2023/09/10 04:48:25;;;;;;;38.70;35.35;;;15.90;99.90;;;;;;5049312;28;20452;-73
2023/09/10 04:50:51;;;;;;;46.97;42.15;;;15.90;99.90;;;;;;5062641;28;20511;-74
2023/09/10 04:53:17;;;;;;;37.85;34.38;;;15.90;99.90;;;;;;5043363;28;20045;-74
2023/09/10 04:55:43;;;;;;;45.55;41.33;;;15.90;99.90;;;;;;5057059;28;20045;-74
2023/09/10 04:58:12;;;;;;;37.30;33.92;;;15.90;99.90;;;;;;5061145;28;20064;-74
2023/09/10 05:00:41;;;;;;;39.25;35.72;;;15.90;99.90;;;;;;5059154;28;20044;-74
2023/09/10 05:03:07;;;;;;;34.35;31.48;;;15.90;99.90;;;;;;5040918;28;20407;-74
2023/09/10 05:05:33;;;;;;;40.90;37.42;;;15.80;99.90;;;;;;5054698;28;20044;-74
2023/09/10 05:07:58;;;;;;;41.92;38.15;;;15.80;99.90;;;;;;5048486;28;20451;-74
2023/09/10 05:10:24;;;;;;;44.15;40.45;;;15.90;99.90;;;;;;5045991;28;20045;-74
2023/09/10 05:12:53;;;;;;;43.17;39.25;;;15.90;99.90;;;;;;5057346;28;20086;-74
2023/09/10 05:15:19;;;;;;;43.17;39.42;;;15.90;99.90;;;;;;5044704;28;20056;-74
2023/09/10 05:17:44;;;;;;;47.72;43.53;;;15.90;99.90;;;;;;5053574;28;20041;-74
2023/09/10 05:20:13;;;;;;;47.17;43.20;;;16.00;99.90;;;;;;5036829;28;20514;-74
2023/09/10 05:22:38;;;;;;;50.65;46.15;;;16.00;99.90;;;;;;5047310;28;20036;-74
2023/09/10 05:25:05;;;;;;;48.47;44.10;;;16.00;99.90;;;;;;5067294;28;20521;-74
2023/09/10 05:27:32;;;;;;;48.15;43.97;;;16.10;99.90;;;;;;5061891;28;20249;-74
2023/09/10 05:29:57;;;;;;;43.30;39.53;;;16.10;99.90;;;;;;5044895;28;20687;-74
2023/09/10 05:32:23;;;;;;;41.47;37.97;;;16.10;99.90;;;;;;5063025;28;20052;-74
2023/09/10 05:34:49;;;;;;;40.80;37.33;;;16.10;99.90;;;;;;5062203;28;20117;-74
2023/09/10 05:37:15;;;;;;;49.60;45.20;;;16.20;99.90;;;;;;5067084;28;20044;-74
2023/09/10 05:39:41;;;;;;;44.97;41.08;;;16.20;99.90;;;;;;5057760;28;20040;-73
2023/09/10 05:42:06;;;;;;;49.97;45.60;;;16.30;99.90;;;;;;5053664;28;20958;-74
2023/09/10 05:44:32;;;;;;;54.95;50.20;;;16.30;99.90;;;;;;5062130;28;20106;-74
2023/09/10 05:46:58;;;;;;;51.83;47.17;;;16.30;99.90;;;;;;5071955;28;20072;-74
2023/09/10 05:49:25;;;;;;;50.75;46.55;;;16.40;99.90;;;;;;5058489;28;20051;-74
2023/09/10 05:51:51;;;;;;;50.50;46.10;;;16.40;99.90;;;;;;5048824;28;20065;-74
2023/09/10 05:54:16;;;;;;;47.17;43.20;;;16.40;99.90;;;;;;5060669;28;20052;-74
2023/09/10 05:56:42;;;;;;;50.90;46.38;;;16.50;99.90;;;;;;5052044;28;20060;-74
2023/09/10 05:59:08;;;;;;;50.33;45.97;;;16.50;99.90;;;;;;5061958;28;20044;-74
2023/09/10 06:01:34;;;;;;;48.80;44.50;;;16.50;99.90;;;;;;5045603;28;20044;-74
2023/09/10 06:03:59;;;;;;;44.83;41.00;;;16.60;99.90;;;;;;5044990;28;20082;-74
2023/09/10 06:06:28;;;;;;;46.05;42.08;;;16.60;99.90;;;;;;5070184;28;20063;-74
2023/09/10 06:08:54;;;;;;;46.70;42.70;;;16.60;99.90;;;;;;5056261;28;20063;-74
2023/09/10 06:11:19;;;;;;;51.95;47.45;;;16.70;99.90;;;;;;5061445;28;20525;-74
2023/09/10 06:13:45;;;;;;;58.33;53.28;;;16.70;99.90;;;;;;5062673;28;20036;-74
2023/09/10 06:16:11;;;;;;;62.20;56.97;;;16.80;99.90;;;;;;5091922;28;20059;-74
2023/09/10 06:18:37;;;;;;;62.05;56.65;;;16.80;99.90;;;;;;5063922;28;20047;-74
2023/09/10 06:21:03;;;;;;;61.30;56.00;;;16.80;99.90;;;;;;5064197;28;20056;-74
2023/09/10 06:23:31;;;;;;;58.63;53.58;;;16.90;99.90;;;;;;5063905;28;20045;-73
2023/09/10 06:25:57;;;;;;;52.17;47.72;;;16.90;99.90;;;;;;5059372;28;20161;-73
2023/09/10 06:28:24;;;;;;;56.72;51.72;;;16.90;99.90;;;;;;5066040;28;20048;-74
2023/09/10 06:30:50;;;;;;;62.47;56.83;;;17.10;99.90;;;;;;5068631;28;20040;-74
2023/09/10 06:33:16;;;;;;;63.92;58.05;;;17.10;99.90;;;;;;5067655;28;20098;-74
2023/09/10 06:35:41;;;;;;;67.40;61.30;;;17.20;99.90;;;;;;5043576;28;20032;-74
2023/09/10 06:38:08;;;;;;;70.32;63.92;;;17.30;99.90;;;;;;5056395;28;20037;-74
2023/09/10 06:40:36;;;;;;;73.95;67.18;;;17.40;99.90;;;;;;5047136;28;20390;-74
2023/09/10 06:43:04;;;;;;;75.25;68.40;;;17.50;99.90;;;;;;5060762;28;20499;-74
2023/09/10 06:45:30;;;;;;;72.90;66.38;;;17.60;99.90;;;;;;5064573;28;20088;-73
2023/09/10 06:47:58;;;;;;;83.87;76.07;;;17.70;99.90;;;;;;5079498;28;20060;-74
2023/09/10 06:50:24;;;;;;;77.43;70.40;;;17.80;99.90;;;;;;5060856;28;20293;-74
2023/09/10 06:52:50;;;;;;;72.63;65.85;;;17.80;99.90;;;;;;5055569;28;20099;-73
2023/09/10 06:55:16;;;;;;;73.10;66.70;;;17.90;99.90;;;;;;5069327;28;20520;-74
2023/09/10 06:57:45;;;;;;;66.22;60.42;;;18.00;99.90;;;;;;5045796;28;20033;-73
2023/09/10 07:00:14;;;;;;;75.45;68.75;;;18.00;99.90;;;;;;5060368;28;20056;-75
2023/09/10 07:02:39;;;;;;;77.88;70.85;;;18.10;99.90;;;;;;5059322;28;20510;-73
2023/09/10 07:05:07;;;;;;;76.50;69.65;;;18.20;99.90;;;;;;5070418;28;20127;-73
2023/09/10 07:07:33;;;;;;;71.90;65.57;;;18.20;99.90;;;;;;5057475;28;20170;-73
2023/09/10 07:09:58;;;;;;;65.22;59.72;;;18.40;99.90;;;;;;5066611;28;20133;-73
2023/09/10 07:12:24;;;;;;;74.47;67.85;;;18.50;99.90;;;;;;5049316;28;20044;-73
2023/09/10 07:14:50;;;;;;;66.40;60.58;;;18.60;99.90;;;;;;5065875;28;20423;-73
2023/09/10 07:17:16;;;;;;;60.05;54.92;;;18.70;99.90;;;;;;5041047;28;20081;-73
2023/09/10 07:19:41;;;;;;;59.63;54.42;;;18.90;99.90;;;;;;5076047;28;20047;-74
2023/09/10 07:22:07;;;;;;;58.05;53.05;;;19.00;99.90;;;;;;5042081;28;20091;-73
2023/09/10 07:24:33;;;;;;;50.95;46.67;;;19.20;99.90;;;;;;5062357;28;20060;-73
2023/09/10 07:27:01;;;;;;;53.00;48.60;;;19.40;99.90;;;;;;5042868;28;20055;-74
2023/09/10 07:29:27;;;;;;;53.63;49.17;;;19.50;99.90;;;;;;5050747;28;20190;-74
2023/09/10 07:31:53;;;;;;;49.10;44.80;;;19.70;99.90;;;;;;5057549;28;20048;-74
2023/09/10 07:34:20;;;;;;;50.40;46.22;;;19.80;99.90;;;;;;5064609;28;20040;-74
2023/09/10 07:36:46;;;;;;;43.20;39.67;;;20.00;99.90;;;;;;5064413;28;20122;-73
2023/09/10 07:39:13;;;;;;;47.42;43.30;;;20.10;99.90;;;;;;5058581;28;20075;-74
2023/09/10 07:41:39;;;;;;;44.45;40.72;;;20.20;99.90;;;;;;5053092;28;20124;-74
2023/09/10 07:44:05;;;;;;;46.85;42.85;;;20.30;99.90;;;;;;5052972;28;20044;-74
2023/09/10 07:46:32;;;;;;;42.05;38.42;;;20.50;99.90;;;;;;5049662;28;21495;-74
2023/09/10 07:48:58;;;;;;;40.05;36.63;;;20.70;99.90;;;;;;5059489;28;20389;-74
2023/09/10 07:51:24;;;;;;;38.95;35.67;;;20.80;99.90;;;;;;5065978;28;20105;-74
2023/09/10 07:53:49;;;;;;;40.25;36.92;;;21.00;99.90;;;;;;5044994;28;20127;-74
2023/09/10 07:56:15;;;;;;;37.72;34.55;;;21.10;99.90;;;;;;5064814;28;20055;-74
2023/09/10 07:58:41;;;;;;;42.45;39.03;;;21.30;99.90;;;;;;5045171;28;20043;-74
2023/09/10 08:01:06;;;;;;;39.97;36.40;;;21.50;99.90;;;;;;5057251;28;20044;-75
2023/09/10 08:03:34;;;;;;;36.13;33.10;;;21.70;99.90;;;;;;5045035;28;20048;-75
2023/09/10 08:06:00;;;;;;;34.55;31.50;;;21.90;99.90;;;;;;5056647;28;20119;-75
2023/09/10 08:08:25;;;;;;;37.38;34.30;;;22.10;99.90;;;;;;5042317;28;20181;-75
2023/09/10 08:10:51;;;;;;;34.80;31.70;;;22.20;99.90;;;;;;5052789;28;20039;-75
2023/09/10 08:13:17;;;;;;;35.55;32.20;;;22.40;99.90;;;;;;5061889;28;20036;-75
2023/09/10 08:15:43;;;;;;;34.85;32.00;;;22.60;99.90;;;;;;5051513;28;20052;-75
2023/09/10 08:18:11;;;;;;;33.70;30.95;;;22.70;99.90;;;;;;5054180;28;20051;-74
2023/09/10 08:20:38;;;;;;;32.08;29.35;;;22.80;99.90;;;;;;5065919;28;20123;-74
2023/09/10 08:23:04;;;;;;;32.38;29.50;;;23.00;99.90;;;;;;5058968;28;20048;-75
2023/09/10 08:25:31;;;;;;;30.67;28.10;;;23.10;99.90;;;;;;5062352;28;20056;-75
2023/09/10 08:27:57;;;;;;;30.48;27.98;;;23.20;99.90;;;;;;5040213;28;20044;-75
2023/09/10 08:30:23;;;;;;;31.98;29.33;;;23.30;99.90;;;;;;5061229;28;20121;-74
2023/09/10 08:32:49;;;;;;;30.67;27.88;;;23.40;99.90;;;;;;5061395;28;20051;-75
2023/09/10 08:35:18;;;;;;;33.90;30.95;;;23.50;99.90;;;;;;5046978;28;20044;-75
2023/09/10 08:37:44;;;;;;;32.50;29.50;;;23.60;99.90;;;;;;5062521;28;20052;-75
2023/09/10 08:40:11;;;;;;;31.30;28.60;;;23.70;99.90;;;;;;5046955;28;20048;-75
2023/09/10 08:43:02;;;;;;;30.80;28.02;;;23.90;99.90;;;;;;5055948;28;21435;-75
2023/09/10 08:45:28;;;;;;;30.55;27.95;;;24.00;99.90;;;;;;5086534;28;20064;-75
2023/09/10 08:47:55;;;;;;;31.45;28.73;;;24.10;99.90;;;;;;5043136;28;20049;-74
2023/09/10 08:50:23;;;;;;;28.50;26.10;;;24.20;99.90;;;;;;5039413;28;20051;-75
2023/09/10 08:52:50;;;;;;;28.85;26.45;;;24.30;99.90;;;;;;5055057;28;20079;-74
2023/09/10 08:55:16;;;;;;;26.15;23.75;;;24.40;99.90;;;;;;5055662;28;20048;-75
2023/09/10 08:57:45;;;;;;;29.75;27.27;;;24.50;99.90;;;;;;5036497;28;20036;-75
2023/09/10 09:00:12;;;;;;;28.40;25.92;;;24.60;99.90;;;;;;5060500;28;20083;-74
2023/09/10 09:02:43;;;;;;;25.33;23.23;;;24.80;99.90;;;;;;5043770;28;20063;-74
2023/09/10 09:05:10;;;;;;;24.08;21.77;;;24.90;99.90;;;;;;5059493;28;20481;-74
2023/09/10 09:07:57;;;;;;;24.65;22.58;;;25.00;99.90;;;;;;5044796;28;20784;-72
2023/09/10 09:10:26;;;;;;;22.38;20.42;;;25.00;99.90;;;;;;5059230;28;21870;-72
2023/09/10 09:12:56;;;;;;;;;;;25.00;99.90;;;;;;5068321;28;20536;-72
2023/09/10 09:15:23;;;;;;;22.98;20.77;;;25.10;99.90;;;;;;5044514;28;19943;-72
2023/09/10 09:17:50;;;;;;;19.98;18.15;;;25.10;99.90;;;;;;5060331;28;20033;-72
2023/09/10 09:20:18;;;;;;;22.02;20.23;;;25.10;99.90;;;;;;5070490;28;20417;-72
2023/09/10 09:22:50;;;;;;;20.45;18.48;;;25.10;99.90;;;;;;5065371;28;20651;-72
2023/09/10 09:25:16;;;;;;;21.05;19.30;;;25.20;99.90;;;;;;5065064;28;20056;-72
2023/09/10 09:27:43;;;;;;;21.40;19.48;;;25.20;99.90;;;;;;5062889;28;20047;-72
2023/09/10 09:30:11;;;;;;;22.67;20.60;;;25.20;99.90;;;;;;5097445;27;20372;-72
2023/09/10 09:32:38;;;;;;;23.85;21.58;;;25.30;99.90;;;;;;5045127;28;20140;-72
2023/09/10 09:35:05;;;;;;;21.75;19.73;;;25.40;99.90;;;;;;5056334;28;20079;-71
2023/09/10 09:37:32;;;;;;;21.35;19.48;;;25.40;99.90;;;;;;5062218;28;20056;-72
2023/09/10 09:39:59;;;;;;;21.73;19.77;;;25.50;99.90;;;;;;5055026;28;20730;-72
2023/09/10 09:42:26;;;;;;;22.58;20.58;;;25.60;99.90;;;;;;5060073;28;20044;-72
2023/09/10 09:44:52;;;;;;;22.00;20.08;;;25.60;99.90;;;;;;5064037;28;20059;-73
2023/09/10 09:47:18;;;;;;;22.55;20.52;;;25.70;99.90;;;;;;5043263;28;20516;-73
2023/09/10 09:49:44;;;;;;;23.30;21.33;;;25.70;99.90;;;;;;5046938;28;20044;-73
2023/09/10 09:52:12;;;;;;;22.15;20.25;;;25.80;99.90;;;;;;5090462;27;20045;-73
2023/09/10 09:54:39;;;;;;;22.77;20.92;;;25.80;99.90;;;;;;5058812;28;20085;-73
2023/09/10 09:57:05;;;;;;;22.50;20.33;;;25.90;99.90;;;;;;5036611;28;20108;-72
2023/09/10 09:59:38;;;;;;;20.70;18.77;;;25.90;99.90;;;;;;5048258;28;20047;-73
2023/09/10 10:02:04;;;;;;;19.75;17.95;;;25.90;99.90;;;;;;5056532;28;20094;-72
2023/09/10 10:04:33;;;;;;;20.98;19.17;;;25.90;99.90;;;;;;5056156;28;20048;-73
2023/09/10 10:07:01;;;;;;;19.38;17.65;;;26.10;99.90;;;;;;5055143;28;20094;-73
2023/09/10 10:09:35;;;;;;;19.65;17.55;;;26.10;99.90;;;;;;5059042;28;20048;-73
2023/09/10 10:12:06;;;;;;;19.50;17.70;;;26.20;99.90;;;;;;5052736;28;20281;-73
2023/09/10 10:14:32;;;;;;;19.27;17.60;;;26.30;99.90;;;;;;5061157;28;20053;-74
2023/09/10 10:17:01;;;;;;;17.83;16.17;;;26.30;99.90;;;;;;5062485;28;20568;-73
2023/09/10 10:19:31;;;;;;;19.15;17.10;;;26.40;99.90;;;;;;5066552;28;20048;-73
2023/09/10 10:21:57;;;;;;;18.77;16.80;;;26.60;99.90;;;;;;5092982;27;20052;-73
2023/09/10 10:24:24;;;;;;;19.33;17.55;;;26.60;99.90;;;;;;5047674;28;20233;-73
2023/09/10 10:26:51;;;;;;;17.08;15.57;;;26.60;99.90;;;;;;5056421;28;20060;-73
2023/09/10 10:29:22;;;;;;;18.45;15.70;;;26.70;99.90;;;;;;5057194;28;20412;-73
2023/09/10 10:32:06;;;;;;;19.30;17.17;;;26.80;99.90;;;;;;5040622;28;20045;-73
2023/09/10 10:34:41;;;;;;;18.67;16.85;;;26.80;99.90;;;;;;5068023;28;20340;-72
2023/09/10 10:37:26;;;;;;;18.50;16.88;;;26.80;99.90;;;;;;5094242;27;20051;-73
2023/09/10 10:40:11;;;;;;;16.42;14.73;;;26.90;99.90;;;;;;5048190;28;20056;-73
2023/09/10 10:43:06;;;;;;;15.88;14.55;;;26.90;99.90;;;;;;5051421;28;20261;-73
2023/09/10 10:45:33;;;;;;;15.70;14.25;;;27.00;99.90;;;;;;5061436;28;20060;-73
2023/09/10 10:48:03;;;;;;;17.52;14.90;;;27.10;99.90;;;;;;5069308;28;20056;-73
2023/09/10 10:50:31;;;;;;;14.50;13.20;;;27.10;99.90;;;;;;5090762;27;20044;-73
2023/09/10 10:53:06;;;;;;;15.88;14.20;;;27.20;99.90;;;;;;5064142;28;20139;-73
2023/09/10 10:55:33;;;;;;;15.02;13.32;;;27.20;99.90;;;;;;5057891;28;20048;-73
2023/09/10 10:58:00;;;;;;;14.65;13.13;;;27.30;99.90;;;;;;5063836;28;20083;-72
2023/09/10 11:00:27;;;;;;;17.15;15.40;;;27.30;99.90;;;;;;5057853;28;20147;-73
2023/09/10 11:03:13;;;;;;;13.40;11.32;;;27.40;99.90;;;;;;5061903;28;20075;-73
2023/09/10 11:05:54;;;;;;;17.75;12.90;;;27.30;99.90;;;;;;5044605;28;20036;-73
2023/09/10 11:08:30;;;;;;;11.52;10.43;;;27.30;99.90;;;;;;5058496;28;20422;-73
2023/09/10 11:10:57;;;;;;;15.38;13.77;;;27.40;99.90;;;;;;5065640;28;20044;-73
2023/09/10 11:13:23;;;;;;;15.95;13.63;;;27.40;99.90;;;;;;5062678;28;20140;-73
2023/09/10 11:16:04;;;;;;;14.52;12.65;;;27.50;99.90;;;;;;5043115;28;20101;-72
2023/09/10 11:18:36;;;;;;;15.68;13.45;;;27.50;99.90;;;;;;5056061;28;20044;-72
2023/09/10 11:21:02;;;;;;;16.02;12.85;;;27.50;99.90;;;;;;5041523;28;20499;-72
2023/09/10 11:23:29;;;;;;;15.02;11.85;;;27.60;99.90;;;;;;5040887;28;20167;-72
2023/09/10 11:26:13;;;;;;;14.38;11.32;;;27.70;99.90;;;;;;5060094;28;20041;-72
2023/09/10 11:28:44;;;;;;;13.15;11.68;;;27.80;99.90;;;;;;5074111;28;20503;-72
2023/09/10 11:31:28;;;;;;;15.07;11.63;;;27.80;99.90;;;;;;5044624;28;20054;-72
2023/09/10 11:33:59;;;;;;;15.15;11.85;;;27.80;99.90;;;;;;5053045;28;20044;-72
2023/09/10 11:36:26;;;;;;;11.85;10.30;;;27.80;99.90;;;;;;5057673;28;20078;-72
2023/09/10 11:38:55;;;;;;;17.17;10.50;;;27.80;99.90;;;;;;5038564;28;20040;-72
2023/09/10 11:41:21;;;;;;;14.23;12.38;;;27.90;99.90;;;;;;5058768;28;20052;-71
2023/09/10 11:43:49;;;;;;;13.20;10.35;;;27.90;99.90;;;;;;5040626;28;20040;-72
2023/09/10 11:46:15;;;;;;;14.38;10.55;;;27.90;99.90;;;;;;5038741;28;20517;-72
2023/09/10 11:48:41;;;;;;;17.98;10.63;;;28.00;99.90;;;;;;5061383;28;20052;-73
2023/09/10 11:51:07;;;;;;;20.20;11.57;;;28.00;99.90;;;;;;5078335;28;20094;-72
2023/09/10 11:53:37;;;;;;;14.43;10.35;;;28.00;99.90;;;;;;5060750;28;20506;-72
2023/09/10 11:56:03;;;;;;;12.60;9.38;;;28.10;99.90;;;;;;5056308;28;20178;-72
2023/09/10 11:58:29;;;;;;;15.30;10.30;;;28.10;99.90;;;;;;5056809;28;20039;-72
2023/09/10 12:00:55;;;;;;;12.02;9.30;;;28.20;99.90;;;;;;5055013;28;20039;-73
2023/09/10 12:03:25;;;;;;;17.58;11.95;;;28.20;99.90;;;;;;5061467;28;20041;-72
2023/09/10 12:05:51;;;;;;;14.73;10.20;;;28.20;99.90;;;;;;5057882;28;20542;-72
2023/09/10 12:08:17;;;;;;;11.82;9.98;;;28.20;99.90;;;;;;5076177;28;20041;-72
2023/09/10 12:10:43;;;;;;;12.43;9.55;;;28.20;99.90;;;;;;5053940;28;20040;-73
2023/09/10 12:13:09;;;;;;;15.05;11.68;;;28.20;99.90;;;;;;5055565;28;20036;-72
2023/09/10 12:15:35;;;;;;;15.57;10.35;;;28.20;99.90;;;;;;5055546;28;20093;-72
2023/09/10 12:18:05;;;;;;;16.50;10.57;;;28.20;99.90;;;;;;5055006;28;20488;-72
2023/09/10 12:20:33;;;;;;;18.17;10.52;;;28.30;99.90;;;;;;5053193;28;20056;-72
2023/09/10 12:23:00;;;;;;;14.45;10.15;;;28.30;99.90;;;;;;5057498;28;20638;-72
2023/09/10 12:25:27;;;;;;;15.45;9.85;;;28.30;99.90;;;;;;5060893;28;20601;-72
2023/09/10 12:27:53;;;;;;;17.35;9.80;;;28.40;99.90;;;;;;5059300;28;20056;-73
2023/09/10 12:30:20;;;;;;;15.88;10.15;;;28.50;99.90;;;;;;5041917;28;20048;-72